createdAt,value
2022-09-06T00:01:23.375Z,14.51
2022-09-06T00:16:28.544Z,14.41
2022-09-06T00:31:31.952Z,14.30
2022-09-06T00:46:34.157Z,14.30
2022-09-06T01:01:35.859Z,14.37
2022-09-06T01:16:46.491Z,14.23
2022-09-06T01:32:01.593Z,14.47
2022-09-06T01:47:05.874Z,13.38
2022-09-06T02:02:12.652Z,13.31
2022-09-06T02:17:16.962Z,13.22
2022-09-06T02:32:22.799Z,13.30
2022-09-06T02:47:24.325Z,13.46
2022-09-06T03:02:26.083Z,13.21
2022-09-06T03:17:27.652Z,13.10
2022-09-06T03:32:29.211Z,13.34
2022-09-06T03:47:30.733Z,13.32
2022-09-06T04:02:32.307Z,13.56
2022-09-06T04:17:33.882Z,14.39
2022-09-06T04:32:35.419Z,16.59
2022-09-06T04:47:37.017Z,18.78
2022-09-06T05:02:38.594Z,18.90
2022-09-06T05:17:40.236Z,20.26
2022-09-06T05:32:41.795Z,21.13
2022-09-06T05:47:43.317Z,21.82
2022-09-06T06:02:48.001Z,20.45
2022-09-06T06:17:49.616Z,21.74
2022-09-06T06:32:51.137Z,22.01
2022-09-06T06:47:52.661Z,23.93
2022-09-06T07:02:55.890Z,22.44
2022-09-06T07:17:57.861Z,23.82
2022-09-06T07:33:00.176Z,24.98
2022-09-06T07:48:01.785Z,24.03
2022-09-06T08:03:03.360Z,23.25
2022-09-06T08:18:05.000Z,23.94
2022-09-06T08:33:06.548Z,24.49
2022-09-06T08:48:08.683Z,24.68
2022-09-06T09:03:21.498Z,24.92
2022-09-06T09:18:25.136Z,24.35
2022-09-06T09:33:32.468Z,24.51
2022-09-06T09:48:33.988Z,27.81
2022-09-06T10:03:35.615Z,25.99
2022-09-06T10:18:41.712Z,27.93
2022-09-06T10:33:43.191Z,28.14
2022-09-06T10:48:45.831Z,24.63
2022-09-06T11:03:58.470Z,26.58
2022-09-06T11:19:07.991Z,27.31
2022-09-06T11:34:20.058Z,26.49
2022-09-06T11:49:29.432Z,27.72
2022-09-06T12:04:49.692Z,27.76
2022-09-06T12:20:07.297Z,27.92
2022-09-06T12:50:34.985Z,26.73
2022-09-06T13:05:40.751Z,24.72
2022-09-06T13:20:42.563Z,25.39
2022-09-06T13:35:44.097Z,25.19
2022-09-06T13:50:45.626Z,24.22
2022-09-06T14:05:47.146Z,24.53
2022-09-06T14:20:52.672Z,24.96
2022-09-06T14:35:54.204Z,24.13
2022-09-06T14:50:55.882Z,24.06
2022-09-06T15:05:57.395Z,23.86
2022-09-06T15:20:59.448Z,23.70
2022-09-06T15:36:06.058Z,23.09
2022-09-06T15:51:07.834Z,22.82
2022-09-06T16:06:27.856Z,22.60
2022-09-06T16:21:32.249Z,22.14
2022-09-06T16:36:33.866Z,22.43
2022-09-06T16:51:35.420Z,21.84
2022-09-06T17:06:44.183Z,21.25
2022-09-06T17:21:47.803Z,20.80
2022-09-06T17:36:49.322Z,20.42
2022-09-06T17:51:50.874Z,20.17
2022-09-06T18:06:52.386Z,20.30
2022-09-06T18:21:55.145Z,20.28
2022-09-06T18:36:57.046Z,20.33
2022-09-06T18:51:58.726Z,20.20
2022-09-06T19:07:02.086Z,19.75
2022-09-06T19:22:03.840Z,19.51
2022-09-06T19:37:05.452Z,19.27
2022-09-06T19:52:10.553Z,19.04
2022-09-06T20:07:12.051Z,17.63
2022-09-06T20:22:13.553Z,17.80
2022-09-06T20:37:15.139Z,16.88
2022-09-06T20:52:16.688Z,16.98
2022-09-06T21:07:18.209Z,16.63
2022-09-06T21:22:19.736Z,15.98
2022-09-06T21:37:21.323Z,15.91
2022-09-06T21:52:23.716Z,15.87
2022-09-06T22:16:08.690Z,15.86
2022-09-06T22:31:10.512Z,15.86
2022-09-06T22:46:12.968Z,15.39
2022-09-06T23:01:15.502Z,15.17
2022-09-06T23:16:18.334Z,15.21
2022-09-06T23:31:20.053Z,15.34
2022-09-06T23:46:21.683Z,15.96
